createdAt,value
2023-05-21T00:00:50.483Z,19.25
2023-05-21T00:03:17.254Z,21.83
2023-05-21T00:05:44.392Z,21.13
2023-05-21T00:08:12.757Z,19.42
2023-05-21T00:10:39.441Z,21.17
2023-05-21T00:13:06.124Z,17.98
2023-05-21T00:15:32.860Z,19.67
2023-05-21T00:17:59.702Z,20.67
2023-05-21T00:20:26.287Z,20.33
2023-05-21T00:22:53.168Z,19.92
2023-05-21T00:25:21.109Z,19.60
2023-05-21T00:27:47.646Z,20.60
2023-05-21T00:30:14.182Z,22.52
2023-05-21T00:32:40.769Z,21.67
2023-05-21T00:35:08.645Z,19.27
2023-05-21T00:37:35.350Z,18.13
2023-05-21T00:40:02.383Z,20.33
2023-05-21T00:42:30.453Z,19.73
2023-05-21T00:44:57.072Z,20.23
2023-05-21T00:47:24.367Z,21.27
2023-05-21T00:49:51.178Z,20.52
2023-05-21T00:52:17.793Z,19.85
2023-05-21T00:54:44.412Z,21.97
2023-05-21T00:57:11.217Z,20.55
2023-05-21T00:59:39.449Z,20.85
2023-05-21T01:02:06.319Z,18.80
2023-05-21T01:04:33.030Z,19.83
2023-05-21T01:06:59.577Z,18.47
2023-05-21T01:09:26.902Z,20.10
2023-05-21T01:11:55.442Z,20.92
2023-05-21T01:14:24.055Z,23.08
2023-05-21T01:16:52.739Z,19.40
2023-05-21T01:19:21.440Z,20.83
2023-05-21T01:21:50.628Z,19.42
2023-05-21T01:24:19.308Z,20.35
2023-05-21T01:26:45.972Z,22.13
2023-05-21T01:29:13.311Z,19.02
2023-05-21T01:31:52.687Z,20.10
2023-05-21T01:34:23.881Z,19.40
2023-05-21T01:36:57.338Z,21.27
2023-05-21T01:39:30.222Z,21.50
2023-05-21T01:41:57.978Z,20.23
2023-05-21T01:44:25.666Z,20.67
2023-05-21T01:46:54.450Z,19.20
2023-05-21T01:49:22.530Z,19.92
2023-05-21T01:51:49.766Z,22.88
2023-05-21T01:54:16.427Z,21.52
2023-05-21T01:56:44.353Z,19.30
2023-05-21T01:59:11.771Z,20.48
2023-05-21T02:01:38.340Z,19.38
2023-05-21T02:04:05.324Z,18.92
2023-05-21T02:06:31.898Z,22.50
2023-05-21T02:08:58.429Z,18.40
2023-05-21T02:11:25.022Z,19.02
2023-05-21T02:13:52.890Z,20.83
2023-05-21T02:16:19.649Z,20.05
2023-05-21T02:18:46.294Z,20.73
2023-05-21T02:21:12.925Z,20.07
2023-05-21T02:23:39.448Z,22.85
2023-05-21T02:26:05.976Z,19.58
2023-05-21T02:28:32.548Z,18.10
2023-05-21T02:31:00.580Z,18.25
2023-05-21T02:33:27.124Z,18.60
2023-05-21T02:35:53.890Z,19.50
2023-05-21T02:38:20.684Z,19.02
2023-05-21T02:40:47.266Z,19.27
2023-05-21T02:43:15.410Z,20.75
2023-05-21T02:45:42.808Z,19.80
2023-05-21T02:48:10.883Z,18.58
2023-05-21T02:50:37.417Z,21.52
2023-05-21T02:53:04.161Z,20.95
2023-05-21T02:55:30.885Z,21.05
2023-05-21T02:57:57.425Z,21.23
2023-05-21T03:00:24.007Z,18.45
2023-05-21T03:02:50.550Z,18.77
2023-05-21T03:05:18.526Z,19.40
2023-05-21T03:07:45.234Z,23.08
2023-05-21T03:10:11.916Z,21.27
2023-05-21T03:12:38.679Z,19.98
2023-05-21T03:15:06.042Z,18.75
2023-05-21T03:17:32.697Z,19.83
2023-05-21T03:19:59.292Z,20.80
2023-05-21T03:22:27.246Z,19.10
2023-05-21T03:24:53.802Z,21.60
2023-05-21T03:27:20.330Z,20.00
2023-05-21T03:29:47.008Z,19.98
2023-05-21T03:32:13.802Z,19.75
2023-05-21T03:34:40.696Z,20.13
2023-05-21T03:37:07.378Z,20.17
2023-05-21T03:39:35.268Z,21.33
2023-05-21T03:42:01.911Z,18.00
2023-05-21T03:44:28.483Z,19.63
2023-05-21T03:46:55.024Z,19.88
2023-05-21T03:49:21.622Z,21.03
2023-05-21T03:51:48.335Z,20.08
2023-05-21T03:54:15.014Z,19.30
2023-05-21T03:56:42.934Z,17.63
2023-05-21T03:59:09.435Z,20.48
2023-05-21T04:01:36.281Z,20.03
2023-05-21T04:04:03.076Z,19.55
2023-05-21T04:06:29.856Z,21.55
2023-05-21T04:08:56.410Z,21.50
2023-05-21T04:11:23.024Z,19.85
2023-05-21T04:13:50.975Z,22.70
2023-05-21T04:16:17.607Z,23.67
2023-05-21T04:18:45.638Z,23.48
2023-05-21T04:21:13.135Z,26.75
2023-05-21T04:23:39.756Z,22.58
2023-05-21T04:26:06.466Z,21.03
2023-05-21T04:28:32.993Z,26.35
2023-05-21T04:31:00.916Z,24.08
2023-05-21T04:33:27.508Z,21.83
2023-05-21T04:35:55.384Z,22.15
2023-05-21T04:38:22.010Z,24.40
2023-05-21T04:40:50.536Z,21.85
2023-05-21T04:43:17.171Z,21.77
2023-05-21T04:45:43.857Z,21.58
2023-05-21T04:48:12.260Z,19.75
2023-05-21T04:50:38.827Z,19.63
2023-05-21T04:53:05.525Z,20.52
2023-05-21T04:55:32.028Z,23.20
2023-05-21T04:57:58.600Z,21.27
2023-05-21T05:00:25.311Z,19.88
2023-05-21T05:02:51.914Z,21.07
2023-05-21T05:05:19.952Z,20.25
2023-05-21T05:07:46.471Z,20.13
2023-05-21T05:10:13.029Z,22.35
2023-05-21T05:12:39.708Z,19.58
2023-05-21T05:15:07.321Z,22.13
2023-05-21T05:17:33.906Z,21.25
2023-05-21T05:20:00.412Z,21.60
2023-05-21T05:22:28.456Z,21.30
2023-05-21T05:24:55.023Z,20.48
2023-05-21T05:27:21.725Z,19.27
2023-05-21T05:29:48.348Z,22.08
2023-05-21T05:32:14.972Z,22.42
2023-05-21T05:34:41.675Z,23.20
2023-05-21T05:37:08.402Z,20.85
2023-05-21T05:39:36.428Z,22.73
2023-05-21T05:42:03.564Z,19.63
2023-05-21T05:44:30.172Z,21.17
2023-05-21T05:46:56.731Z,20.05
2023-05-21T05:49:23.357Z,21.15
2023-05-21T05:51:50.049Z,18.63
2023-05-21T05:54:16.577Z,21.38
2023-05-21T05:56:44.562Z,22.63
2023-05-21T05:59:11.110Z,21.08
2023-05-21T06:01:37.614Z,21.10
2023-05-21T06:04:04.409Z,19.80
2023-05-21T06:06:31.095Z,19.30
2023-05-21T06:08:57.599Z,20.75
2023-05-21T06:11:24.286Z,20.85
2023-05-21T06:13:52.211Z,19.67
2023-05-21T06:16:19.029Z,22.50
2023-05-21T06:18:45.627Z,21.70
2023-05-21T06:21:12.343Z,21.85
2023-05-21T06:23:39.020Z,20.90
2023-05-21T06:26:05.699Z,21.63
2023-05-21T06:28:32.259Z,20.40
2023-05-21T06:31:02.738Z,20.35
2023-05-21T06:33:29.525Z,22.05
2023-05-21T06:35:56.150Z,23.92
2023-05-21T06:38:22.839Z,22.23
2023-05-21T06:40:50.074Z,26.77
2023-05-21T06:43:16.642Z,24.55
2023-05-21T06:45:43.232Z,24.95
2023-05-21T06:48:11.288Z,23.67
2023-05-21T06:50:38.007Z,25.88
2023-05-21T06:53:04.543Z,23.20
2023-05-21T06:55:31.223Z,22.63
2023-05-21T06:57:57.813Z,24.00
2023-05-21T07:00:24.641Z,25.00
2023-05-21T07:02:51.634Z,22.60
2023-05-21T07:05:19.914Z,22.53
2023-05-21T07:07:46.444Z,25.33
2023-05-21T07:10:12.981Z,25.80
2023-05-21T07:12:39.678Z,24.45
2023-05-21T07:15:07.179Z,24.60
2023-05-21T07:17:33.776Z,24.30
2023-05-21T07:20:00.385Z,24.20
2023-05-21T07:22:28.598Z,22.92
2023-05-21T07:24:55.218Z,24.13
2023-05-21T07:27:25.870Z,22.95
2023-05-21T07:29:52.702Z,33.40
2023-05-21T07:32:19.427Z,22.42
2023-05-21T07:34:45.963Z,24.55
2023-05-21T07:37:12.523Z,24.15
2023-05-21T07:39:40.507Z,22.52
2023-05-21T07:42:07.181Z,21.73
2023-05-21T07:44:33.745Z,22.20
2023-05-21T07:47:00.415Z,22.88
2023-05-21T07:49:26.917Z,22.23
2023-05-21T07:51:53.434Z,23.38
2023-05-21T07:54:19.998Z,23.23
2023-05-21T07:56:47.927Z,22.33
2023-05-21T07:59:16.287Z,23.42
2023-05-21T08:01:42.854Z,22.00
2023-05-21T08:04:09.744Z,19.00
2023-05-21T08:06:36.334Z,20.83
2023-05-21T08:09:03.128Z,21.30
2023-05-21T08:11:29.638Z,21.75
2023-05-21T08:13:57.605Z,25.05
2023-05-21T08:16:24.393Z,21.38
2023-05-21T08:18:50.948Z,20.30
2023-05-21T08:21:17.594Z,20.48
2023-05-21T08:23:44.661Z,20.60
2023-05-21T08:26:11.278Z,21.35
2023-05-21T08:28:38.354Z,21.25
2023-05-21T08:31:06.421Z,18.03
2023-05-21T08:33:35.369Z,20.30
2023-05-21T08:36:02.034Z,19.27
2023-05-21T08:38:30.226Z,21.25
2023-05-21T08:40:58.376Z,17.95
2023-05-21T08:43:27.545Z,18.57
2023-05-21T08:45:55.136Z,19.25
2023-05-21T08:48:24.231Z,18.80
2023-05-21T08:50:52.246Z,18.52
2023-05-21T08:53:27.125Z,20.25
2023-05-21T08:55:56.163Z,17.47
2023-05-21T08:58:23.055Z,18.13
2023-05-21T09:00:49.796Z,18.30
2023-05-21T09:03:16.981Z,18.35
2023-05-21T09:05:45.450Z,19.05
2023-05-21T09:08:15.024Z,15.97
2023-05-21T09:10:48.504Z,18.90
2023-05-21T09:13:16.601Z,20.98
2023-05-21T09:15:43.832Z,18.50
2023-05-21T09:18:10.432Z,19.45
2023-05-21T09:20:37.146Z,17.93
2023-05-21T09:23:06.210Z,18.08
2023-05-21T09:25:33.294Z,17.58
2023-05-21T09:27:59.936Z,16.98
2023-05-21T09:30:34.881Z,18.02
2023-05-21T09:33:02.636Z,17.23
2023-05-21T09:35:29.480Z,17.13
2023-05-21T09:37:56.044Z,17.35
2023-05-21T09:40:24.285Z,16.40
2023-05-21T09:42:52.107Z,17.35
2023-05-21T09:45:19.643Z,17.17
2023-05-21T09:47:48.495Z,15.48
2023-05-21T09:50:19.237Z,18.23
2023-05-21T09:52:46.214Z,16.92
2023-05-21T09:55:13.948Z,15.93
2023-05-21T09:57:42.631Z,17.23
2023-05-21T10:00:16.780Z,15.73
2023-05-21T10:02:45.534Z,17.27
2023-05-21T10:05:13.433Z,15.88
2023-05-21T10:07:42.083Z,15.32
2023-05-21T10:10:13.263Z,16.43
2023-05-21T10:12:43.810Z,17.30
2023-05-21T10:15:14.375Z,15.13
2023-05-21T10:17:41.814Z,15.13
2023-05-21T10:20:11.100Z,16.45
2023-05-21T10:22:37.904Z,14.13
2023-05-21T10:25:06.659Z,14.32
2023-05-21T10:27:34.682Z,14.63
2023-05-21T10:30:04.155Z,13.93
2023-05-21T10:32:31.445Z,17.08
2023-05-21T10:35:00.727Z,15.70
2023-05-21T10:37:29.010Z,14.38
2023-05-21T10:39:56.550Z,14.82
2023-05-21T10:42:44.657Z,16.48
2023-05-21T10:45:19.795Z,15.23
2023-05-21T10:47:58.638Z,15.87
2023-05-21T10:50:53.901Z,14.43
2023-05-21T10:53:29.024Z,16.13
2023-05-21T10:56:05.217Z,14.75
2023-05-21T10:58:47.617Z,15.50
2023-05-21T11:01:17.079Z,13.97
2023-05-21T11:03:43.862Z,15.25
2023-05-21T11:06:10.601Z,15.45
2023-05-21T11:08:38.585Z,15.85
2023-05-21T11:11:05.333Z,16.05
2023-05-21T11:13:45.721Z,14.70
2023-05-21T11:16:17.795Z,14.63
2023-05-21T11:19:00.606Z,14.73
2023-05-21T11:21:30.247Z,15.60
2023-05-21T11:24:00.229Z,16.15
2023-05-21T11:26:27.722Z,13.80
2023-05-21T11:29:07.301Z,13.65
2023-05-21T11:31:35.845Z,14.68
2023-05-21T11:34:15.344Z,14.18
2023-05-21T11:36:44.787Z,15.35
2023-05-21T11:39:13.444Z,14.33
2023-05-21T11:41:53.261Z,13.70
2023-05-21T11:44:37.432Z,14.98
2023-05-21T11:47:06.901Z,13.45
2023-05-21T11:49:34.195Z,14.23
2023-05-21T11:52:01.777Z,14.37
2023-05-21T11:54:28.684Z,13.52
2023-05-21T11:56:55.793Z,12.85
2023-05-21T11:59:22.320Z,14.80
2023-05-21T12:01:48.833Z,14.18
2023-05-21T12:04:16.715Z,13.50
2023-05-21T12:06:43.605Z,14.73
2023-05-21T12:09:10.446Z,13.38
2023-05-21T12:11:38.605Z,14.43
2023-05-21T12:14:07.217Z,14.02
2023-05-21T12:16:34.256Z,12.57
2023-05-21T12:19:01.829Z,13.60
2023-05-21T12:21:30.363Z,13.85
2023-05-21T12:23:57.073Z,14.27
2023-05-21T12:26:24.337Z,14.32
2023-05-21T12:28:51.768Z,14.20
2023-05-21T12:31:18.421Z,13.38
2023-05-21T12:33:45.177Z,14.00
2023-05-21T12:36:22.047Z,13.30
2023-05-21T12:38:50.323Z,14.68
2023-05-21T12:41:17.735Z,13.83
2023-05-21T12:43:44.573Z,12.73
2023-05-21T12:46:11.524Z,13.57
2023-05-21T12:48:38.149Z,14.52
2023-05-21T12:51:04.717Z,12.75
2023-05-21T12:53:36.781Z,14.93
2023-05-21T12:56:09.945Z,13.38
2023-05-21T12:58:36.632Z,13.90
2023-05-21T13:01:06.115Z,12.40
2023-05-21T13:03:32.897Z,12.55
2023-05-21T13:05:59.888Z,13.90
2023-05-21T13:08:26.800Z,15.90
2023-05-21T13:10:53.557Z,14.02
2023-05-21T13:13:21.584Z,16.40
2023-05-21T13:15:48.177Z,14.95
2023-05-21T13:18:14.922Z,14.93
2023-05-21T13:20:41.434Z,15.57
2023-05-21T13:23:10.561Z,14.65
2023-05-21T13:25:38.117Z,14.00
2023-05-21T13:28:05.189Z,15.05
2023-05-21T13:30:33.232Z,14.70
2023-05-21T13:33:00.118Z,17.50
2023-05-21T13:35:26.882Z,15.13
2023-05-21T13:37:53.476Z,13.85
2023-05-21T13:40:20.359Z,13.85
2023-05-21T13:42:48.540Z,14.87
2023-05-21T13:45:17.020Z,16.27
2023-05-21T13:47:46.111Z,15.80
2023-05-21T13:50:12.851Z,15.13
2023-05-21T13:52:39.643Z,16.83
2023-05-21T13:55:07.212Z,16.43
2023-05-21T13:57:34.098Z,15.85
2023-05-21T14:00:00.674Z,15.23
2023-05-21T14:02:27.545Z,15.13
2023-05-21T14:04:55.705Z,15.75
2023-05-21T14:07:22.362Z,15.50
2023-05-21T14:09:49.180Z,15.07
2023-05-21T14:12:15.827Z,15.98
2023-05-21T14:14:42.625Z,15.82
2023-05-21T14:17:09.230Z,14.63
2023-05-21T14:19:35.912Z,15.30
2023-05-21T14:22:04.004Z,17.50
2023-05-21T14:24:30.683Z,16.05
2023-05-21T14:26:57.213Z,15.85
2023-05-21T14:29:24.035Z,16.33
2023-05-21T14:31:50.812Z,16.33
2023-05-21T14:34:17.425Z,16.33
2023-05-21T14:36:44.117Z,15.98
2023-05-21T14:39:12.039Z,17.38
2023-05-21T14:41:39.415Z,15.73
2023-05-21T14:44:06.024Z,15.70
2023-05-21T14:46:32.817Z,15.98
2023-05-21T14:48:59.630Z,16.00
2023-05-21T14:51:26.179Z,15.02
2023-05-21T14:53:52.903Z,16.20
2023-05-21T14:56:20.968Z,16.43
2023-05-21T14:58:47.525Z,16.80
2023-05-21T15:01:14.287Z,14.98
2023-05-21T15:03:40.964Z,16.27
2023-05-21T15:06:07.854Z,16.88
2023-05-21T15:08:34.382Z,15.60
2023-05-21T15:11:01.099Z,15.40
2023-05-21T15:13:29.085Z,13.95
2023-05-21T15:15:55.908Z,15.57
2023-05-21T15:18:22.458Z,16.08
2023-05-21T15:20:49.156Z,16.13
2023-05-21T15:23:18.821Z,15.93
2023-05-21T15:25:45.640Z,19.20
2023-05-21T15:28:12.695Z,16.95
2023-05-21T15:30:40.971Z,18.48
2023-05-21T15:33:07.848Z,16.40
2023-05-21T15:35:35.264Z,15.55
2023-05-21T15:38:02.224Z,17.60
2023-05-21T15:40:28.754Z,14.90
2023-05-21T15:42:55.320Z,14.70
2023-05-21T15:45:22.077Z,16.57
2023-05-21T15:47:50.003Z,15.90
2023-05-21T15:50:16.627Z,19.33
2023-05-21T15:52:43.314Z,15.30
2023-05-21T15:55:09.986Z,15.18
2023-05-21T15:57:36.624Z,15.60
2023-05-21T16:00:03.548Z,15.88
2023-05-21T16:02:30.262Z,13.98
2023-05-21T16:04:58.251Z,14.40
2023-05-21T16:07:24.901Z,13.70
2023-05-21T16:09:51.488Z,16.03
2023-05-21T16:12:18.232Z,15.38
2023-05-21T16:14:45.042Z,13.80
2023-05-21T16:17:11.741Z,13.30
2023-05-21T16:19:38.957Z,16.15
2023-05-21T16:22:07.857Z,14.03
2023-05-21T16:24:35.973Z,13.07
2023-05-21T16:27:02.748Z,14.80
2023-05-21T16:29:29.262Z,14.90
2023-05-21T16:31:56.072Z,14.15
2023-05-21T16:34:22.661Z,14.87
2023-05-21T16:36:49.194Z,13.52
2023-05-21T16:39:17.183Z,16.30
2023-05-21T16:41:43.719Z,16.08
2023-05-21T16:44:10.438Z,14.25
2023-05-21T16:46:37.409Z,12.30
2023-05-21T16:49:04.037Z,14.32
2023-05-21T16:51:30.714Z,15.10
2023-05-21T16:53:57.387Z,14.32
2023-05-21T16:56:26.560Z,13.48
2023-05-21T16:58:53.119Z,12.30
2023-05-21T17:01:19.857Z,13.60
2023-05-21T17:03:46.785Z,13.85
2023-05-21T17:06:13.418Z,13.25
2023-05-21T17:08:40.016Z,11.32
2023-05-21T17:11:06.645Z,13.60
2023-05-21T17:13:34.584Z,11.98
2023-05-21T17:16:01.184Z,11.63
2023-05-21T17:18:27.723Z,11.88
2023-05-21T17:20:54.407Z,12.60
2023-05-21T17:23:21.010Z,12.70
2023-05-21T17:25:47.887Z,13.13
2023-05-21T17:28:14.432Z,11.30
2023-05-21T17:30:42.338Z,12.40
2023-05-21T17:33:09.075Z,11.63
2023-05-21T17:35:35.964Z,11.17
2023-05-21T17:38:02.680Z,12.27
2023-05-21T17:40:29.201Z,12.20
2023-05-21T17:42:55.779Z,10.98
2023-05-21T17:45:22.336Z,11.90
2023-05-21T17:47:50.478Z,12.07
2023-05-21T17:50:17.064Z,12.02
2023-05-21T17:52:43.648Z,13.65
2023-05-21T17:55:10.565Z,12.00
2023-05-21T17:57:37.267Z,11.25
2023-05-21T18:00:04.363Z,12.73
2023-05-21T18:02:31.071Z,13.70
2023-05-21T18:04:59.019Z,11.05
2023-05-21T18:07:25.568Z,11.13
2023-05-21T18:09:52.126Z,10.55
2023-05-21T18:12:18.720Z,12.20
2023-05-21T18:14:45.285Z,12.15
2023-05-21T18:17:11.801Z,13.70
2023-05-21T18:19:38.375Z,12.27
2023-05-21T18:22:06.650Z,13.68
2023-05-21T18:24:33.516Z,11.07
2023-05-21T18:27:00.129Z,13.30
2023-05-21T18:29:26.729Z,12.45
2023-05-21T18:31:53.812Z,10.45
2023-05-21T18:34:20.448Z,11.60
2023-05-21T18:36:47.018Z,11.60
2023-05-21T18:39:15.007Z,12.15
2023-05-21T18:41:41.679Z,11.43
2023-05-21T18:44:08.338Z,10.75
2023-05-21T18:46:35.013Z,11.15
2023-05-21T18:49:01.582Z,11.23
2023-05-21T18:51:28.233Z,10.82
2023-05-21T18:53:54.745Z,11.23
2023-05-21T18:56:22.714Z,11.05
2023-05-21T18:58:49.339Z,12.75
2023-05-21T19:01:16.260Z,11.57
2023-05-21T19:03:42.945Z,13.80
2023-05-21T19:06:09.514Z,13.00
2023-05-21T19:08:36.051Z,12.55
2023-05-21T19:11:02.972Z,12.27
2023-05-21T19:13:30.930Z,12.43
2023-05-21T19:15:57.559Z,12.18
2023-05-21T19:18:24.229Z,12.00
2023-05-21T19:20:50.907Z,12.65
2023-05-21T19:23:17.652Z,12.55
2023-05-21T19:25:44.236Z,15.47
2023-05-21T19:28:10.780Z,14.07
2023-05-21T19:30:38.978Z,12.45
2023-05-21T19:33:05.670Z,13.43
2023-05-21T19:35:32.306Z,14.05
2023-05-21T19:37:59.676Z,13.57
2023-05-21T19:40:27.767Z,13.05
2023-05-21T19:42:54.319Z,14.07
2023-05-21T19:45:21.090Z,13.52
2023-05-21T19:47:49.261Z,14.20
2023-05-21T19:50:15.914Z,13.60
2023-05-21T19:52:42.477Z,13.80
2023-05-21T19:55:09.332Z,15.00
2023-05-21T19:57:36.154Z,13.50
2023-05-21T20:00:03.280Z,15.05
2023-05-21T20:02:29.888Z,14.37
2023-05-21T20:04:57.773Z,14.38
2023-05-21T20:07:24.507Z,14.57
2023-05-21T20:09:51.109Z,14.82
2023-05-21T20:12:17.864Z,15.52
2023-05-21T20:14:44.410Z,14.13
2023-05-21T20:17:11.034Z,15.98
2023-05-21T20:19:37.872Z,17.23
2023-05-21T20:22:06.083Z,13.60
2023-05-21T20:24:32.760Z,13.32
2023-05-21T20:26:59.345Z,13.97
2023-05-21T20:29:26.015Z,14.27
2023-05-21T20:31:52.588Z,12.65
2023-05-21T20:34:19.193Z,14.95
2023-05-21T20:36:45.859Z,13.70
2023-05-21T20:39:13.794Z,13.47
2023-05-21T20:41:40.358Z,15.95
2023-05-21T20:44:06.935Z,14.65
2023-05-21T20:46:34.216Z,14.88
2023-05-21T20:49:00.911Z,14.50
2023-05-21T20:51:27.517Z,13.50
2023-05-21T20:53:54.033Z,13.75
2023-05-21T20:56:33.615Z,14.50
2023-05-21T20:59:08.576Z,14.95
2023-05-21T21:01:36.491Z,14.45
2023-05-21T21:04:03.474Z,14.13
2023-05-21T21:06:30.094Z,13.98
2023-05-21T21:08:56.702Z,13.63
2023-05-21T21:11:24.934Z,14.55
2023-05-21T21:13:51.568Z,15.13
2023-05-21T21:16:18.143Z,14.70
2023-05-21T21:18:44.929Z,14.32
2023-05-21T21:21:11.476Z,13.50
2023-05-21T21:23:38.223Z,14.10
2023-05-21T21:26:04.806Z,14.88
2023-05-21T21:28:32.714Z,13.73
2023-05-21T21:30:59.365Z,15.85
2023-05-21T21:33:25.917Z,14.60
2023-05-21T21:35:52.509Z,14.80
2023-05-21T21:38:19.230Z,15.63
2023-05-21T21:40:45.748Z,15.33
2023-05-21T21:43:12.312Z,14.43
2023-05-21T21:45:40.395Z,16.17
2023-05-21T21:48:07.183Z,15.85
2023-05-21T21:50:33.807Z,17.02
2023-05-21T21:53:00.551Z,14.67
2023-05-21T21:55:27.071Z,16.50
2023-05-21T21:57:53.623Z,16.08
2023-05-21T22:00:20.459Z,14.52
2023-05-21T22:02:48.392Z,15.48
2023-05-21T22:05:15.039Z,15.60
2023-05-21T22:07:42.062Z,14.32
2023-05-21T22:10:09.407Z,15.68
2023-05-21T22:12:36.002Z,14.30
2023-05-21T22:15:02.610Z,15.65
2023-05-21T22:17:29.170Z,14.20
2023-05-21T22:19:57.352Z,15.73
2023-05-21T22:22:24.067Z,15.88
2023-05-21T22:24:50.599Z,15.43
2023-05-21T22:27:17.286Z,15.52
2023-05-21T22:29:43.788Z,15.97
2023-05-21T22:32:10.478Z,14.10
2023-05-21T22:34:37.060Z,15.00
2023-05-21T22:37:05.203Z,17.25
2023-05-21T22:39:31.764Z,15.43
2023-05-21T22:41:58.400Z,15.23
2023-05-21T22:44:25.012Z,14.45
2023-05-21T22:46:51.591Z,14.45
2023-05-21T22:49:18.264Z,15.20
2023-05-21T22:51:44.999Z,15.63
2023-05-21T22:54:13.144Z,13.67
2023-05-21T22:56:39.812Z,15.15
2023-05-21T22:59:06.525Z,16.08
2023-05-21T23:01:33.438Z,14.77
2023-05-21T23:04:00.047Z,14.68
2023-05-21T23:06:26.610Z,16.00
2023-05-21T23:08:53.203Z,14.82
2023-05-21T23:11:21.206Z,14.95
2023-05-21T23:13:47.746Z,15.68
2023-05-21T23:16:14.447Z,14.43
2023-05-21T23:18:41.051Z,16.30
2023-05-21T23:21:07.967Z,14.75
2023-05-21T23:23:34.587Z,13.25
2023-05-21T23:26:01.161Z,15.40
2023-05-21T23:28:29.085Z,15.85
2023-05-21T23:30:55.671Z,14.80
2023-05-21T23:33:22.422Z,14.98
2023-05-21T23:35:49.008Z,15.95
2023-05-21T23:38:15.714Z,15.68
2023-05-21T23:40:42.268Z,15.25
2023-05-21T23:43:08.798Z,14.27
2023-05-21T23:45:36.866Z,14.60
2023-05-21T23:48:03.912Z,15.52
2023-05-21T23:50:30.555Z,15.25
2023-05-21T23:52:57.273Z,16.10
2023-05-21T23:55:23.852Z,15.50
2023-05-21T23:57:50.449Z,16.35
